Terminal Aerodrome Forecast
Issued by NWS

Current Version | Previous Version | Text Only | Print | Product List | Glossary On
Versions: 1 2 3 4 5 6 7 8 9 10 11 12 13 14 15 16 17 18 19 20 21 22 23 24 25 26 27 28 29 30 31 32 33 34
000
FTUS42 KFFC 222324
TAFFTY
TAF
KFTY 222324Z 2300/2324 09007KT 6SM -RA BR OVC008
     FM230300 09007KT 3SM -DZ BR OVC005
     FM230800 10007KT 1/2SM -DZ FG OVC003
     FM231500 10007KT 2SM -SHRA BR OVC009
     FM231900 12007KT 6SM -SHRA BR OVC014=

USA.gov is the U.S. government's official web portal to all federal, state and local government web resources and services.